createdAt,value
2023-03-03T00:00:10.917Z,2.60
2023-03-03T00:02:40.687Z,2.60
2023-03-03T00:05:07.589Z,2.60
2023-03-03T00:07:34.397Z,2.60
2023-03-03T00:10:01.198Z,2.60
2023-03-03T00:12:31.002Z,2.50
2023-03-03T00:14:58.034Z,2.50
2023-03-03T00:17:26.495Z,2.50
2023-03-03T00:19:55.914Z,2.50
2023-03-03T00:22:28.683Z,2.50
2023-03-03T00:24:55.619Z,2.40
2023-03-03T00:27:35.942Z,2.40
2023-03-03T00:30:02.956Z,2.30
2023-03-03T00:32:50.227Z,2.30
2023-03-03T00:35:30.615Z,2.30
2023-03-03T00:38:10.742Z,2.20
2023-03-03T00:40:38.550Z,2.20
2023-03-03T00:43:22.365Z,2.30
2023-03-03T00:45:50.529Z,2.30
2023-03-03T00:48:17.585Z,2.30
2023-03-03T00:50:44.489Z,2.20
2023-03-03T00:53:13.526Z,2.20
2023-03-03T00:55:40.668Z,2.30
2023-03-03T00:58:10.431Z,2.30
2023-03-03T01:00:44.657Z,2.30
2023-03-03T01:03:15.760Z,2.30
2023-03-03T01:05:42.956Z,2.30
2023-03-03T01:08:09.763Z,2.30
2023-03-03T01:10:41.804Z,2.30
2023-03-03T01:13:09.491Z,2.40
2023-03-03T01:15:39.220Z,2.40
2023-03-03T01:18:06.587Z,2.40
2023-03-03T01:20:35.442Z,2.30
2023-03-03T01:23:02.255Z,2.40
2023-03-03T01:25:29.453Z,2.30
2023-03-03T01:27:56.693Z,2.30
2023-03-03T01:30:23.620Z,2.20
2023-03-03T01:36:46.316Z,2.10
2023-03-03T01:39:15.601Z,2.10
2023-03-03T01:41:44.880Z,2.20
2023-03-03T01:44:15.216Z,2.20
2023-03-03T01:46:57.359Z,2.20
2023-03-03T01:49:29.889Z,2.20
2023-03-03T01:51:58.329Z,2.20
2023-03-03T01:54:28.168Z,2.30
2023-03-03T01:56:58.071Z,2.30
2023-03-03T01:59:27.018Z,2.30
2023-03-03T02:01:53.986Z,2.20
2023-03-03T02:04:23.634Z,2.30
2023-03-03T02:07:06.829Z,2.20
2023-03-03T02:10:00.005Z,2.20
2023-03-03T02:12:34.360Z,2.20
2023-03-03T02:15:03.496Z,2.20
2023-03-03T02:17:30.211Z,2.10
2023-03-03T02:20:14.634Z,2.20
2023-03-03T02:22:44.213Z,2.10
2023-03-03T02:25:13.511Z,2.20
2023-03-03T02:27:40.261Z,2.10
2023-03-03T02:30:14.576Z,2.10
2023-03-03T02:32:41.814Z,2.10
2023-03-03T02:35:27.444Z,2.10
2023-03-03T02:37:57.742Z,2.10
2023-03-03T02:40:29.759Z,2.10
2023-03-03T02:42:57.779Z,2.10
2023-03-03T02:45:26.895Z,2.10
2023-03-03T02:47:53.685Z,2.10
2023-03-03T02:50:20.556Z,2.00
2023-03-03T02:52:47.497Z,2.00
2023-03-03T02:55:14.355Z,2.00
2023-03-03T02:57:41.162Z,2.00
2023-03-03T03:00:08.180Z,2.00
2023-03-03T03:02:35.173Z,2.00
2023-03-03T03:05:02.763Z,2.00
2023-03-03T03:07:31.596Z,1.90
2023-03-03T03:09:58.357Z,1.90
2023-03-03T03:12:27.939Z,1.90
2023-03-03T03:14:56.450Z,1.90
2023-03-03T03:17:23.207Z,1.90
2023-03-03T03:19:52.541Z,1.80
2023-03-03T03:22:19.980Z,1.80
2023-03-03T03:24:46.840Z,1.80
2023-03-03T03:27:14.748Z,1.80
2023-03-03T03:29:41.897Z,1.80
2023-03-03T03:32:12.825Z,1.80
2023-03-03T03:34:44.602Z,1.70
2023-03-03T03:37:11.697Z,1.70
2023-03-03T03:39:38.895Z,1.70
2023-03-03T03:42:08.145Z,1.70
2023-03-03T03:44:35.029Z,1.70
2023-03-03T03:47:02.038Z,1.70
2023-03-03T03:49:29.445Z,1.70
2023-03-03T03:51:57.736Z,1.80
2023-03-03T03:54:29.943Z,1.80
2023-03-03T03:56:57.357Z,1.80
2023-03-03T03:59:24.287Z,1.80
2023-03-03T04:01:51.881Z,1.80
2023-03-03T04:04:20.734Z,1.80
2023-03-03T04:06:50.416Z,1.80
2023-03-03T04:09:17.144Z,1.80
2023-03-03T04:11:46.688Z,1.70
2023-03-03T04:14:14.750Z,1.70
2023-03-03T04:16:42.429Z,1.70
2023-03-03T04:19:12.360Z,1.70
2023-03-03T04:21:42.873Z,1.70
2023-03-03T04:24:12.073Z,1.70
2023-03-03T04:26:38.904Z,1.70
2023-03-03T04:29:08.428Z,1.70
2023-03-03T04:31:35.396Z,1.70
2023-03-03T04:34:06.440Z,1.70
2023-03-03T04:36:35.761Z,1.70
2023-03-03T04:39:03.009Z,1.60
2023-03-03T04:41:29.796Z,1.60
2023-03-03T04:43:56.700Z,1.60
2023-03-03T04:46:23.505Z,1.70
2023-03-03T04:48:53.781Z,1.60
2023-03-03T04:51:20.569Z,1.60
2023-03-03T04:53:47.422Z,1.60
2023-03-03T04:56:14.736Z,1.60
2023-03-03T04:58:41.769Z,1.50
2023-03-03T05:01:12.456Z,1.60
2023-03-03T05:03:39.406Z,1.50
2023-03-03T05:06:06.824Z,1.50
2023-03-03T05:08:33.718Z,1.40
2023-03-03T05:11:01.480Z,1.40
2023-03-03T05:13:28.331Z,1.40
2023-03-03T05:15:55.995Z,1.40
2023-03-03T05:18:23.983Z,1.40
2023-03-03T05:20:51.619Z,1.40
2023-03-03T05:23:18.777Z,1.50
2023-03-03T05:25:47.299Z,1.50
2023-03-03T05:28:14.043Z,1.50
2023-03-03T05:30:43.373Z,1.50
2023-03-03T05:33:13.014Z,1.50
2023-03-03T05:35:39.780Z,1.50
2023-03-03T05:38:06.579Z,1.50
2023-03-03T05:40:36.276Z,1.50
2023-03-03T05:43:03.100Z,1.50
2023-03-03T05:45:32.441Z,1.50
2023-03-03T05:47:59.170Z,1.50
2023-03-03T05:50:25.937Z,1.50
2023-03-03T05:52:54.922Z,1.50
2023-03-03T05:55:21.938Z,1.40
2023-03-03T05:57:48.669Z,1.40
2023-03-03T06:00:15.805Z,1.40
2023-03-03T06:02:42.957Z,1.40
2023-03-03T06:05:11.895Z,1.50
2023-03-03T06:07:38.664Z,1.50
2023-03-03T06:10:05.665Z,1.50
2023-03-03T06:12:38.972Z,1.50
2023-03-03T06:15:08.459Z,1.50
2023-03-03T06:17:35.256Z,1.50
2023-03-03T06:20:02.095Z,1.50
2023-03-03T06:22:28.943Z,1.50
2023-03-03T06:24:58.015Z,1.50
2023-03-03T06:27:24.729Z,1.50
2023-03-03T06:29:51.451Z,1.50
2023-03-03T06:32:18.403Z,1.50
2023-03-03T06:34:47.476Z,1.50
2023-03-03T06:37:14.228Z,1.40
2023-03-03T06:39:41.055Z,1.40
2023-03-03T06:42:09.500Z,1.40
2023-03-03T06:44:36.525Z,1.40
2023-03-03T06:47:03.346Z,1.40
2023-03-03T06:49:30.067Z,1.40
2023-03-03T06:51:57.950Z,1.50
2023-03-03T06:54:30.701Z,1.50
2023-03-03T06:56:59.041Z,1.50
2023-03-03T06:59:26.727Z,1.50
2023-03-03T07:01:53.613Z,1.60
2023-03-03T07:04:25.517Z,1.60
2023-03-03T07:06:52.583Z,1.60
2023-03-03T07:09:24.052Z,1.60
2023-03-03T07:11:58.818Z,1.60
2023-03-03T07:14:25.647Z,1.60
2023-03-03T07:16:56.620Z,1.60
2023-03-03T07:19:34.603Z,1.60
2023-03-03T07:22:06.537Z,1.60
2023-03-03T07:24:34.124Z,1.60
2023-03-03T07:27:03.190Z,1.60
2023-03-03T07:29:33.673Z,1.60
2023-03-03T07:32:01.871Z,1.60
2023-03-03T07:34:38.831Z,1.60
2023-03-03T07:37:15.226Z,1.60
2023-03-03T07:39:45.428Z,1.60
2023-03-03T07:42:15.546Z,1.60
2023-03-03T07:44:45.764Z,1.70
2023-03-03T07:47:20.372Z,1.60
2023-03-03T07:49:49.631Z,1.70
2023-03-03T07:52:20.610Z,1.70
2023-03-03T07:54:47.580Z,1.80
2023-03-03T07:57:14.302Z,1.80
2023-03-03T07:59:48.818Z,1.80
2023-03-03T08:02:36.923Z,1.80
2023-03-03T08:05:26.752Z,1.80
2023-03-03T08:08:02.765Z,1.80
2023-03-03T08:10:35.055Z,1.80
2023-03-03T08:13:05.471Z,1.80
2023-03-03T08:15:39.232Z,1.90
2023-03-03T08:18:15.229Z,1.90
2023-03-03T08:20:46.927Z,2.00
2023-03-03T08:23:19.593Z,2.00
2023-03-03T08:25:46.446Z,2.00
2023-03-03T08:28:14.060Z,2.00
2023-03-03T08:30:41.014Z,2.00
2023-03-03T08:33:07.956Z,2.00
2023-03-03T08:35:34.963Z,2.00
2023-03-03T08:38:02.021Z,2.00
2023-03-03T08:40:31.225Z,2.10
2023-03-03T08:42:58.206Z,2.10
2023-03-03T08:45:26.008Z,2.10
2023-03-03T08:47:53.319Z,2.00
2023-03-03T08:50:23.486Z,2.10
2023-03-03T08:52:50.604Z,2.20
2023-03-03T08:55:17.597Z,2.20
2023-03-03T08:57:47.054Z,2.30
2023-03-03T09:00:15.233Z,2.30
2023-03-03T09:02:42.304Z,2.40
2023-03-03T09:05:09.901Z,2.40
2023-03-03T09:07:36.635Z,2.40
2023-03-03T09:10:06.405Z,2.50
2023-03-03T09:12:51.713Z,2.50
2023-03-03T09:15:20.563Z,2.60
2023-03-03T09:17:49.798Z,2.60
2023-03-03T09:20:28.288Z,2.60
2023-03-03T09:22:55.628Z,2.60
2023-03-03T09:25:31.733Z,2.70
2023-03-03T09:27:58.562Z,2.70
2023-03-03T09:30:28.404Z,2.70
2023-03-03T09:32:56.699Z,2.80
2023-03-03T09:35:37.541Z,2.80
2023-03-03T09:38:30.917Z,2.80
2023-03-03T09:41:10.031Z,2.90
2023-03-03T09:43:50.239Z,2.90
2023-03-03T09:46:22.605Z,2.80
2023-03-03T09:48:53.372Z,2.90
2023-03-03T09:51:32.400Z,2.90
2023-03-03T09:53:59.257Z,2.90
2023-03-03T09:56:30.913Z,3.00
2023-03-03T09:59:00.144Z,3.00
2023-03-03T10:01:33.173Z,3.10
2023-03-03T10:04:06.207Z,3.20
2023-03-03T10:06:52.036Z,3.20
2023-03-03T10:09:39.015Z,3.30
2023-03-03T10:12:05.887Z,3.30
2023-03-03T10:14:51.791Z,3.40
2023-03-03T10:17:30.899Z,3.40
2023-03-03T10:20:12.372Z,3.30
2023-03-03T10:22:42.241Z,3.30
2023-03-03T10:25:20.014Z,3.40
2023-03-03T10:27:52.760Z,3.50
2023-03-03T10:30:46.186Z,3.60
2023-03-03T10:33:27.374Z,3.60
2023-03-03T10:36:06.613Z,3.70
2023-03-03T10:38:59.062Z,3.70
2023-03-03T10:41:28.910Z,3.70
2023-03-03T10:44:14.069Z,3.60
2023-03-03T10:46:58.958Z,3.60
2023-03-03T10:49:44.318Z,3.60
2023-03-03T10:52:31.399Z,3.60
2023-03-03T10:55:11.854Z,3.60
2023-03-03T10:57:56.607Z,3.60
2023-03-03T11:00:39.513Z,3.70
2023-03-03T11:03:41.682Z,3.70
2023-03-03T11:06:18.355Z,3.70
2023-03-03T11:08:52.886Z,3.70
2023-03-03T11:11:44.590Z,3.70
2023-03-03T11:14:30.439Z,3.80
2023-03-03T11:17:31.895Z,3.90
2023-03-03T11:20:10.421Z,3.90
2023-03-03T11:22:43.484Z,4.00
2023-03-03T11:25:33.202Z,4.00
2023-03-03T11:28:12.152Z,4.00
2023-03-03T11:30:54.529Z,4.00
2023-03-03T11:33:32.599Z,4.00
2023-03-03T11:36:04.580Z,4.00
2023-03-03T11:38:52.751Z,4.00
2023-03-03T11:41:30.635Z,4.00
2023-03-03T11:44:27.580Z,4.00
2023-03-03T11:47:06.475Z,4.10
2023-03-03T11:50:01.002Z,4.10
2023-03-03T11:52:43.381Z,4.10
2023-03-03T11:55:15.449Z,4.10
2023-03-03T11:58:00.805Z,4.10
2023-03-03T12:00:46.012Z,4.20
2023-03-03T12:03:26.767Z,4.20
2023-03-03T12:06:08.038Z,4.20
2023-03-03T12:08:50.149Z,4.20
2023-03-03T12:11:38.567Z,4.20
2023-03-03T12:14:11.354Z,4.10
2023-03-03T12:16:56.756Z,4.10
2023-03-03T12:20:01.357Z,4.10
2023-03-03T12:22:37.084Z,4.10
2023-03-03T12:25:25.932Z,4.10
2023-03-03T12:27:56.517Z,4.20
2023-03-03T12:30:29.434Z,4.20
2023-03-03T12:33:02.338Z,4.30
2023-03-03T12:35:38.717Z,4.30
2023-03-03T12:38:35.728Z,4.40
2023-03-03T12:41:26.773Z,4.50
2023-03-03T12:43:56.242Z,4.60
2023-03-03T12:46:51.853Z,4.60
2023-03-03T12:49:19.359Z,4.60
2023-03-03T12:52:24.120Z,4.60
2023-03-03T12:54:59.884Z,4.70
2023-03-03T12:57:42.964Z,4.70
2023-03-03T13:00:22.105Z,4.70
2023-03-03T13:02:58.508Z,4.70
2023-03-03T13:05:49.721Z,4.70
2023-03-03T13:08:33.318Z,4.70
2023-03-03T13:11:29.192Z,4.80
2023-03-03T13:14:14.254Z,4.70
2023-03-03T13:17:05.881Z,4.70
2023-03-03T13:20:03.678Z,4.80
2023-03-03T13:23:04.178Z,4.80
2023-03-03T13:25:50.609Z,4.80
2023-03-03T13:28:56.832Z,4.90
2023-03-03T13:31:51.006Z,4.90
2023-03-03T13:34:40.500Z,4.90
2023-03-03T13:37:21.843Z,5.00
2023-03-03T13:39:57.952Z,5.00
2023-03-03T13:42:36.998Z,5.00
2023-03-03T13:45:15.888Z,5.00
2023-03-03T13:48:11.977Z,5.00
2023-03-03T13:50:59.647Z,5.00
2023-03-03T13:53:41.720Z,5.10
2023-03-03T13:56:26.718Z,5.10
2023-03-03T13:59:02.343Z,5.00
2023-03-03T14:01:32.233Z,5.00
2023-03-03T14:04:48.082Z,4.90
2023-03-03T14:07:46.366Z,5.00
2023-03-03T14:10:41.778Z,5.00
2023-03-03T14:13:12.878Z,5.00
2023-03-03T14:15:55.941Z,5.10
2023-03-03T14:18:36.476Z,5.10
2023-03-03T14:21:17.693Z,5.10
2023-03-03T14:24:04.875Z,5.10
2023-03-03T14:26:49.702Z,5.10
2023-03-03T14:29:28.849Z,5.10
2023-03-03T14:32:20.081Z,5.20
2023-03-03T14:35:01.419Z,5.20
2023-03-03T14:38:01.158Z,5.20
2023-03-03T14:40:34.242Z,5.30
2023-03-03T14:43:05.136Z,5.20
2023-03-03T14:45:32.212Z,5.20
2023-03-03T14:48:05.754Z,5.10
2023-03-03T14:50:44.442Z,5.20
2023-03-03T14:53:20.106Z,5.20
2023-03-03T14:55:53.871Z,5.20
2023-03-03T14:58:32.759Z,5.30
2023-03-03T15:01:20.765Z,5.30
2023-03-03T15:04:01.124Z,5.30
2023-03-03T15:06:36.066Z,5.30
2023-03-03T15:09:24.196Z,5.30
2023-03-03T15:11:53.447Z,5.30
2023-03-03T15:14:29.230Z,5.30
2023-03-03T15:17:25.620Z,5.20
2023-03-03T15:20:18.464Z,5.30
2023-03-03T15:22:48.316Z,5.30
2023-03-03T15:25:42.395Z,5.40
2023-03-03T15:28:39.342Z,5.40
2023-03-03T15:31:18.150Z,5.30
2023-03-03T15:33:58.280Z,5.30
2023-03-03T15:37:01.991Z,5.30
2023-03-03T15:40:02.934Z,5.30
2023-03-03T15:42:39.153Z,5.30
2023-03-03T15:45:29.202Z,5.30
2023-03-03T15:48:14.979Z,5.30
2023-03-03T15:51:11.182Z,5.30
2023-03-03T15:53:49.852Z,5.30
2023-03-03T15:56:24.406Z,5.30
2023-03-03T15:59:06.324Z,5.40
2023-03-03T16:01:34.007Z,5.30
2023-03-03T16:04:04.529Z,5.40
2023-03-03T16:06:34.115Z,5.40
2023-03-03T16:09:22.015Z,5.40
2023-03-03T16:11:59.262Z,5.40
2023-03-03T16:14:34.877Z,5.40
2023-03-03T16:17:07.691Z,5.40
2023-03-03T16:20:03.378Z,5.40
2023-03-03T16:22:49.683Z,5.30
2023-03-03T16:25:25.373Z,5.30
2023-03-03T16:28:33.533Z,5.20
2023-03-03T16:31:03.037Z,5.20
2023-03-03T16:33:44.184Z,5.10
2023-03-03T16:36:26.291Z,5.10
2023-03-03T16:38:58.448Z,5.00
2023-03-03T16:41:49.680Z,5.00
2023-03-03T16:44:21.896Z,5.00
2023-03-03T16:46:50.482Z,4.90
2023-03-03T16:49:59.497Z,4.90
2023-03-03T16:52:37.560Z,4.90
2023-03-03T16:55:28.165Z,4.90
2023-03-03T16:58:21.082Z,4.90
2023-03-03T17:01:01.408Z,4.90
2023-03-03T17:03:34.331Z,4.90
2023-03-03T17:06:12.948Z,4.80
2023-03-03T17:08:58.335Z,4.80
2023-03-03T17:11:48.996Z,4.80
2023-03-03T17:14:32.261Z,4.80
2023-03-03T17:17:08.178Z,4.80
2023-03-03T17:20:00.636Z,4.80
2023-03-03T17:22:47.674Z,4.70
2023-03-03T17:25:34.996Z,4.70
2023-03-03T17:28:11.900Z,4.70
2023-03-03T17:31:08.553Z,4.60
2023-03-03T17:34:03.688Z,4.60
2023-03-03T17:36:49.642Z,4.60
2023-03-03T17:39:53.997Z,4.60
2023-03-03T17:42:41.268Z,4.60
2023-03-03T17:45:18.334Z,4.60
2023-03-03T17:48:39.239Z,4.60
2023-03-03T17:51:20.116Z,4.60
2023-03-03T17:53:52.919Z,4.60
2023-03-03T17:56:31.505Z,4.70
2023-03-03T17:59:42.268Z,4.70
2023-03-03T18:02:28.167Z,4.70
2023-03-03T18:05:28.156Z,4.70
2023-03-03T18:08:07.053Z,4.70
2023-03-03T18:10:41.379Z,4.70
2023-03-03T18:13:36.957Z,4.70
2023-03-03T18:16:11.491Z,4.70
2023-03-03T18:18:56.820Z,4.70
2023-03-03T18:21:51.000Z,4.80
2023-03-03T18:24:39.228Z,4.80
2023-03-03T18:27:24.522Z,4.80
2023-03-03T18:30:24.627Z,4.80
2023-03-03T18:32:57.574Z,4.80
2023-03-03T18:35:33.766Z,4.80
2023-03-03T18:38:15.938Z,4.70
2023-03-03T18:41:02.991Z,4.80
2023-03-03T18:43:44.984Z,4.70
2023-03-03T18:46:22.583Z,4.70
2023-03-03T18:49:12.828Z,4.70
2023-03-03T18:51:39.819Z,4.70
2023-03-03T18:54:19.949Z,4.70
2023-03-03T18:56:46.800Z,4.70
2023-03-03T18:59:31.409Z,4.70
2023-03-03T19:02:21.489Z,4.70
2023-03-03T19:05:07.937Z,4.70
2023-03-03T19:07:40.728Z,4.70
2023-03-03T19:10:22.974Z,4.70
2023-03-03T19:12:57.913Z,4.80
2023-03-03T19:15:35.656Z,4.70
2023-03-03T19:18:18.150Z,4.80
2023-03-03T19:21:03.152Z,4.70
2023-03-03T19:23:59.643Z,4.70
2023-03-03T19:26:28.878Z,4.70
2023-03-03T19:29:00.705Z,4.70
2023-03-03T19:31:53.603Z,4.70
2023-03-03T19:34:32.081Z,4.70
2023-03-03T19:37:12.215Z,4.70
2023-03-03T19:40:01.458Z,4.70
2023-03-03T19:42:34.121Z,4.70
2023-03-03T19:45:14.332Z,4.70
2023-03-03T19:48:05.384Z,4.70
2023-03-03T19:50:49.145Z,4.70
2023-03-03T19:53:53.744Z,4.70
2023-03-03T19:56:32.833Z,4.70
2023-03-03T19:59:20.888Z,4.70
2023-03-03T20:02:32.646Z,4.70
2023-03-03T20:05:29.394Z,4.80
2023-03-03T20:08:28.989Z,4.80
2023-03-03T20:11:15.939Z,4.80
2023-03-03T20:14:20.547Z,4.80
2023-03-03T20:16:50.342Z,4.80
2023-03-03T20:19:49.814Z,4.80
2023-03-03T20:22:48.853Z,4.80
2023-03-03T20:25:20.928Z,4.80
2023-03-03T20:28:00.639Z,4.80
2023-03-03T20:30:58.662Z,4.80
2023-03-03T20:33:45.946Z,4.80
2023-03-03T20:36:46.116Z,4.70
2023-03-03T20:39:28.263Z,4.70
2023-03-03T20:42:16.067Z,4.70
2023-03-03T20:45:01.127Z,4.70
2023-03-03T20:48:12.186Z,4.70
2023-03-03T20:50:39.200Z,4.70
2023-03-03T20:53:33.552Z,4.70
2023-03-03T20:56:05.087Z,4.70
2023-03-03T20:58:50.509Z,4.70
2023-03-03T21:01:45.985Z,4.70
2023-03-03T21:04:18.964Z,4.70
2023-03-03T21:06:48.649Z,4.70
2023-03-03T21:09:39.290Z,4.70
2023-03-03T21:12:30.586Z,4.70
2023-03-03T21:15:25.531Z,4.70
2023-03-03T21:17:55.556Z,4.70
2023-03-03T21:20:29.685Z,4.70
2023-03-03T21:23:04.371Z,4.70
2023-03-03T21:25:40.503Z,4.70
2023-03-03T21:28:16.007Z,4.70
2023-03-03T21:31:10.677Z,4.70
2023-03-03T21:33:52.323Z,4.70
2023-03-03T21:36:43.685Z,4.70
2023-03-03T21:39:35.795Z,4.70
2023-03-03T21:42:07.018Z,4.60
2023-03-03T21:44:36.768Z,4.60
2023-03-03T21:47:05.769Z,4.60
2023-03-03T21:49:32.731Z,4.70
2023-03-03T21:52:00.045Z,4.70
2023-03-03T21:54:31.472Z,4.70
2023-03-03T21:56:58.326Z,4.70
2023-03-03T21:59:25.222Z,4.70
2023-03-03T22:01:54.260Z,4.70
2023-03-03T22:04:21.162Z,4.70
2023-03-03T22:06:48.294Z,4.70
2023-03-03T22:09:15.488Z,4.70
2023-03-03T22:11:42.390Z,4.70
2023-03-03T22:14:09.384Z,4.60
2023-03-03T22:16:36.411Z,4.60
2023-03-03T22:19:05.747Z,4.60
2023-03-03T22:21:32.699Z,4.60
2023-03-03T22:24:04.540Z,4.60
2023-03-03T22:26:31.407Z,4.60
2023-03-03T22:28:58.284Z,4.50
2023-03-03T22:31:27.561Z,4.50
2023-03-03T22:33:54.421Z,4.50
2023-03-03T22:36:21.393Z,4.50
2023-03-03T22:38:50.701Z,4.50
2023-03-03T22:41:18.332Z,4.40
2023-03-03T22:43:45.632Z,4.40
2023-03-03T22:46:12.548Z,4.40
2023-03-03T22:48:39.607Z,4.40
2023-03-03T22:51:06.780Z,4.40
2023-03-03T22:53:33.812Z,4.40
2023-03-03T22:56:00.806Z,4.40
2023-03-03T22:58:30.716Z,4.30
2023-03-03T23:00:57.588Z,4.30
2023-03-03T23:03:26.796Z,4.30
2023-03-03T23:05:54.022Z,4.30
2023-03-03T23:08:21.350Z,4.30
2023-03-03T23:10:50.741Z,4.20
2023-03-03T23:13:17.624Z,4.20
2023-03-03T23:15:49.320Z,4.20
2023-03-03T23:18:16.138Z,4.10
2023-03-03T23:20:45.947Z,4.10
2023-03-03T23:23:13.351Z,4.00
2023-03-03T23:25:44.804Z,4.00
2023-03-03T23:28:15.623Z,3.90
2023-03-03T23:30:47.607Z,3.90
2023-03-03T23:33:14.713Z,3.90
2023-03-03T23:35:41.716Z,3.90
2023-03-03T23:38:17.517Z,3.80
2023-03-03T23:40:46.566Z,3.80
2023-03-03T23:43:14.119Z,3.80
2023-03-03T23:45:40.958Z,3.80
2023-03-03T23:48:07.774Z,3.80
2023-03-03T23:50:37.147Z,3.70
2023-03-03T23:53:09.850Z,3.70
2023-03-03T23:55:38.891Z,3.70
2023-03-03T23:58:08.001Z,3.60
